KMVE/MVE METAR and TAF weather

Enter ICAO airport designator
Station Type Date Time Source
KMVE METAR 2024/04/23 05:35 UTC NOAA

KMVE 230535Z AUTO 26006KT 10SM CLR 10/M03 A2966 RMK AO2


Station Type Date Time Source
KMVE Decoded METAR 2024/04/23 05:35 UTC NOAA

Montevideo, Montevideo-Chippewa County Airport, MN, United States (KMVE) 44-58N 095-43W
Apr 23, 2024 - 01:35 AM EDT / 2024.04.23 0535 UTC
Wind: from the W (260 degrees) at 7 MPH (6 KT):0
Visibility: 10 mile(s):0
Sky conditions: clear
Temperature: 50 F (10 C)
Dew Point: 26 F (-3 C)
Relative Humidity: 39%
Pressure (altimeter): 29.66 in. Hg (1004 hPa)
ob: KMVE 230535Z AUTO 26006KT 10SM CLR 10/M03 A2966 RMK AO2
cycle: 5

Station Type Date Time Source
KMVE TAF UTC NOAA

Error!

Example: see airport list